createdAt,value
2024-02-04T00:04:45.945Z,101237.63
2024-02-04T00:09:49.649Z,101237.81
2024-02-04T00:14:53.173Z,101217.81
2024-02-04T00:19:58.135Z,101218.00
2024-02-04T00:25:05.850Z,101226.59
2024-02-04T00:30:10.376Z,101214.16
2024-02-04T00:35:15.386Z,101221.53
2024-02-04T00:40:18.890Z,101207.34
2024-02-04T00:45:23.011Z,101185.72
2024-02-04T00:50:28.248Z,101185.34
2024-02-04T00:55:32.265Z,101174.47
2024-02-04T01:00:36.037Z,101179.31
2024-02-04T01:05:41.059Z,101180.75
2024-02-04T01:10:44.663Z,101177.09
2024-02-04T01:15:48.268Z,101174.81
2024-02-04T01:20:53.263Z,101174.47
2024-02-04T01:25:56.929Z,101179.38
2024-02-04T01:31:00.538Z,101193.50
2024-02-04T01:36:06.075Z,101195.31
2024-02-04T01:41:09.755Z,101194.66
2024-02-04T01:46:13.480Z,101193.09
2024-02-04T01:51:19.547Z,101179.06
2024-02-04T01:56:23.165Z,101187.63
2024-02-04T02:01:26.835Z,101189.19
2024-02-04T02:06:32.122Z,101172.75
2024-02-04T02:11:41.496Z,101176.16
2024-02-04T02:16:47.098Z,101152.19
2024-02-04T02:21:58.890Z,101136.03
2024-02-04T02:27:03.928Z,101131.22
2024-02-04T02:32:08.214Z,101131.84
2024-02-04T02:37:23.460Z,101128.94
2024-02-04T02:42:28.668Z,101133.00
2024-02-04T02:47:35.837Z,101142.50
2024-02-04T02:52:39.510Z,101116.59
2024-02-04T02:57:44.431Z,101128.47
2024-02-04T03:02:48.080Z,101114.28
2024-02-04T03:07:51.643Z,101110.28
2024-02-04T03:12:56.703Z,101105.38
2024-02-04T03:18:00.463Z,101107.09
2024-02-04T03:23:04.479Z,101103.06
2024-02-04T03:28:10.979Z,101102.09
2024-02-04T03:33:14.801Z,101103.06
2024-02-04T03:38:18.784Z,101099.09
2024-02-04T03:43:24.077Z,101097.13
2024-02-04T03:48:27.937Z,101096.03
2024-02-04T03:53:31.648Z,101102.53
2024-02-04T03:58:36.645Z,101089.09
2024-02-04T04:03:41.688Z,101091.53
2024-02-04T04:08:45.355Z,101084.03
2024-02-04T04:13:50.642Z,101080.06
2024-02-04T04:18:54.594Z,101080.19
2024-02-04T04:23:58.552Z,101082.88
2024-02-04T04:29:03.666Z,101089.16
2024-02-04T04:34:08.268Z,101081.97
2024-02-04T04:39:11.933Z,101089.97
2024-02-04T04:44:16.924Z,101076.53
2024-02-04T04:49:20.585Z,101082.38
2024-02-04T04:54:24.735Z,101111.06
2024-02-04T04:59:29.696Z,101103.03
2024-02-04T05:04:33.472Z,101089.16
2024-02-04T05:09:37.090Z,101092.41
2024-02-04T05:14:42.005Z,101082.09
2024-02-04T05:19:46.808Z,101086.81
2024-02-04T05:24:50.522Z,101108.25
2024-02-04T05:29:55.529Z,101096.53
2024-02-04T05:34:59.259Z,101081.75
2024-02-04T05:40:04.483Z,101067.97
2024-02-04T05:45:10.937Z,101066.19
2024-02-04T05:50:14.838Z,101060.13
2024-02-04T05:55:18.566Z,101082.13
2024-02-04T06:00:23.656Z,101073.66
2024-02-04T06:05:27.212Z,101061.94
2024-02-04T06:10:30.803Z,101056.63
2024-02-04T06:15:36.785Z,101051.75
2024-02-04T06:20:40.353Z,101038.97
2024-02-04T06:25:44.017Z,101038.88
2024-02-04T06:30:49.063Z,101054.06
2024-02-04T06:35:52.736Z,101037.03
2024-02-04T06:40:56.387Z,101036.59
2024-02-04T06:46:01.381Z,101008.38
2024-02-04T06:51:05.133Z,101012.13
2024-02-04T06:56:08.984Z,101033.38
2024-02-04T07:01:14.331Z,101012.13
2024-02-04T07:06:18.031Z,101008.84
2024-02-04T07:11:21.649Z,100998.91
2024-02-04T07:16:26.694Z,100983.06
2024-02-04T07:21:30.243Z,100979.59
2024-02-04T07:26:34.072Z,100986.84
2024-02-04T07:31:39.233Z,100982.84
2024-02-04T07:36:42.861Z,100985.09
2024-02-04T07:41:46.497Z,100999.28
2024-02-04T07:46:51.372Z,100995.31
2024-02-04T07:51:55.220Z,100974.84
2024-02-04T07:56:58.746Z,100985.03
2024-02-04T08:02:03.635Z,100969.69
2024-02-04T08:07:07.351Z,100978.03
2024-02-04T08:12:11.661Z,100973.41
2024-02-04T08:17:16.593Z,100984.19
2024-02-04T08:22:20.747Z,100986.25
2024-02-04T08:27:24.424Z,100966.66
2024-02-04T08:32:29.384Z,100963.22
2024-02-04T08:37:34.550Z,100969.72
2024-02-04T08:42:38.207Z,100971.63
2024-02-04T08:47:43.372Z,100992.28
2024-02-04T08:52:46.993Z,100984.94
2024-02-04T08:57:50.631Z,100985.34
2024-02-04T09:02:55.824Z,100984.56
2024-02-04T09:07:59.473Z,100995.31
2024-02-04T09:13:03.089Z,101002.94
2024-02-04T09:18:08.735Z,101008.19
2024-02-04T09:23:12.370Z,101017.91
2024-02-04T09:28:16.716Z,100994.31
2024-02-04T09:33:22.121Z,100991.97
2024-02-04T09:38:26.024Z,100992.47
2024-02-04T09:43:29.751Z,100980.19
2024-02-04T09:48:35.610Z,100977.06
2024-02-04T09:53:45.116Z,100987.41
2024-02-04T09:58:48.711Z,100990.84
2024-02-04T10:03:53.674Z,100989.31
2024-02-04T10:08:57.587Z,101014.38
2024-02-04T10:14:01.563Z,101008.44
2024-02-04T10:19:06.540Z,101003.72
2024-02-04T10:24:10.239Z,101007.03
2024-02-04T10:29:14.024Z,101007.88
2024-02-04T10:34:19.766Z,101003.66
2024-02-04T10:39:23.567Z,100992.03
2024-02-04T10:44:29.162Z,100989.47
2024-02-04T10:49:38.122Z,100973.06
2024-02-04T10:54:42.963Z,100971.63
2024-02-04T10:59:46.767Z,100970.50
2024-02-04T11:04:52.293Z,100957.25
2024-02-04T11:09:56.403Z,100946.63
2024-02-04T11:15:04.575Z,100954.84
2024-02-04T11:20:24.758Z,100931.13
2024-02-04T11:25:45.200Z,100925.63
2024-02-04T11:30:50.137Z,100963.47
2024-02-04T11:36:02.705Z,100937.88
2024-02-04T11:41:06.798Z,100944.84
2024-02-04T11:46:18.640Z,100943.59
2024-02-04T11:51:26.152Z,100925.66
2024-02-04T11:56:29.876Z,100922.41
2024-02-04T12:01:36.311Z,100914.94
2024-02-04T12:06:42.489Z,100934.47
2024-02-04T12:11:46.177Z,100931.31
2024-02-04T12:16:49.766Z,100925.78
2024-02-04T12:21:56.114Z,100926.63
2024-02-04T12:26:59.747Z,100930.00
2024-02-04T12:32:05.063Z,100925.31
2024-02-04T12:37:10.234Z,100914.19
2024-02-04T12:42:19.700Z,100894.75
2024-02-04T12:47:23.369Z,100935.41
2024-02-04T12:52:28.275Z,100900.72
2024-02-04T12:57:32.294Z,100913.25
2024-02-04T13:02:36.537Z,100913.63
2024-02-04T13:07:41.455Z,100898.72
2024-02-04T13:12:45.091Z,100881.31
2024-02-04T13:17:48.716Z,100863.16
2024-02-04T13:22:54.709Z,100891.13
2024-02-04T13:27:58.561Z,100865.88
2024-02-04T13:33:03.365Z,100865.28
2024-02-04T13:38:10.057Z,100870.22
2024-02-04T13:43:13.732Z,100849.25
2024-02-04T13:48:17.595Z,100870.72
2024-02-04T13:53:22.851Z,100848.97
2024-02-04T13:58:27.541Z,100846.88
2024-02-04T14:03:31.187Z,100850.75
2024-02-04T14:08:36.676Z,100858.81
2024-02-04T14:13:40.278Z,100840.84
2024-02-04T14:18:47.139Z,100826.50
2024-02-04T14:23:52.488Z,100829.44
2024-02-04T14:28:56.051Z,100812.06
2024-02-04T14:34:00.275Z,100847.34
2024-02-04T14:39:07.042Z,100838.06
2024-02-04T14:44:11.776Z,100831.41
2024-02-04T14:49:15.527Z,100821.91
2024-02-04T14:54:20.517Z,100836.75
2024-02-04T14:59:24.058Z,100818.53
2024-02-04T15:04:28.092Z,100823.41
2024-02-04T15:09:34.791Z,100795.59
2024-02-04T15:14:38.819Z,100819.16
2024-02-04T15:19:42.861Z,100807.09
2024-02-04T15:24:48.478Z,100805.31
2024-02-04T15:29:53.716Z,100815.16
2024-02-04T15:34:57.837Z,100826.88
2024-02-04T15:40:02.773Z,100832.00
2024-02-04T15:45:09.815Z,100833.41
2024-02-04T15:50:15.122Z,100813.59
2024-02-04T15:55:21.250Z,100817.50
2024-02-04T16:00:26.890Z,100813.38
2024-02-04T16:05:34.793Z,100810.66
2024-02-04T16:10:41.712Z,100804.78
2024-02-04T16:15:47.801Z,100843.81
2024-02-04T16:20:51.370Z,100830.06
2024-02-04T16:25:56.281Z,100810.53
2024-02-04T16:30:59.877Z,100816.47
2024-02-04T16:36:05.563Z,100802.41
2024-02-04T16:41:12.984Z,100824.78
2024-02-04T16:46:16.624Z,100798.13
2024-02-04T16:51:20.781Z,100806.44
2024-02-04T16:56:25.657Z,100787.06
2024-02-04T17:01:29.543Z,100785.94
2024-02-04T17:06:33.729Z,100760.63
2024-02-04T17:11:39.635Z,100748.47
2024-02-04T17:16:48.659Z,100779.47
2024-02-04T17:21:55.305Z,100768.25
2024-02-04T17:27:05.197Z,100760.25
2024-02-04T17:32:10.577Z,100759.53
2024-02-04T17:37:14.527Z,100762.19
2024-02-04T17:42:19.815Z,100758.06
2024-02-04T17:47:25.774Z,100779.91
2024-02-04T17:52:30.292Z,100756.59
2024-02-04T17:57:35.437Z,100745.09
2024-02-04T18:02:46.524Z,100746.31
2024-02-04T18:07:52.288Z,100750.94
2024-02-04T18:12:57.299Z,100749.31
2024-02-04T18:18:01.050Z,100718.53
2024-02-04T18:23:04.901Z,100722.84
2024-02-04T18:28:09.795Z,100715.34
2024-02-04T18:33:13.374Z,100708.63
2024-02-04T18:38:16.977Z,100713.56
2024-02-04T18:43:22.103Z,100701.66
2024-02-04T18:48:25.694Z,100684.25
2024-02-04T18:53:29.248Z,100672.50
2024-02-04T18:58:35.091Z,100657.84
2024-02-04T19:03:38.983Z,100668.81
2024-02-04T19:08:44.641Z,100644.78
2024-02-04T19:13:49.737Z,100647.25
2024-02-04T19:18:54.467Z,100635.53
2024-02-04T19:23:58.281Z,100629.38
2024-02-04T19:29:03.532Z,100613.38
2024-02-04T19:34:07.286Z,100608.50
2024-02-04T19:39:11.281Z,100605.66
2024-02-04T19:44:17.134Z,100606.06
2024-02-04T19:49:24.115Z,100580.84
2024-02-04T19:54:28.437Z,100566.34
2024-02-04T19:59:39.857Z,100559.31
2024-02-04T20:04:43.510Z,100562.72
2024-02-04T20:09:49.031Z,100566.63
2024-02-04T20:14:54.087Z,100544.13
2024-02-04T20:20:00.123Z,100543.25
2024-02-04T20:25:04.477Z,100554.34
2024-02-04T20:30:12.863Z,100532.31
2024-02-04T20:35:16.706Z,100529.50
2024-02-04T20:40:20.408Z,100532.38
2024-02-04T20:45:25.450Z,100524.44
2024-02-04T20:50:29.046Z,100508.34
2024-02-04T20:55:32.703Z,100534.63
2024-02-04T21:00:38.552Z,100499.91
2024-02-04T21:05:42.240Z,100511.44
2024-02-04T21:10:45.859Z,100514.25
2024-02-04T21:15:50.969Z,100495.19
2024-02-04T21:20:54.559Z,100481.44
2024-02-04T21:25:58.107Z,100491.78
2024-02-04T21:31:03.050Z,100481.69
2024-02-04T21:36:10.901Z,100471.88
2024-02-04T21:41:19.379Z,100481.00
2024-02-04T21:46:24.358Z,100475.50
2024-02-04T21:51:27.870Z,100472.88
2024-02-04T21:56:31.469Z,100485.47
2024-02-04T22:01:36.761Z,100472.59
2024-02-04T22:06:40.792Z,100474.41
2024-02-04T22:11:44.616Z,100472.03
2024-02-04T22:16:49.498Z,100466.88
2024-02-04T22:21:53.287Z,100467.53
2024-02-04T22:26:56.840Z,100475.75
2024-02-04T22:32:05.359Z,100468.13
2024-02-04T22:37:10.860Z,100471.84
2024-02-04T22:42:14.505Z,100460.41
2024-02-04T22:47:19.598Z,100473.75
2024-02-04T22:52:23.187Z,100471.63
2024-02-04T22:57:26.942Z,100489.84
2024-02-04T23:02:31.938Z,100481.94
2024-02-04T23:07:43.470Z,100467.41
2024-02-04T23:12:51.294Z,100484.78
2024-02-04T23:17:56.302Z,100482.56
2024-02-04T23:22:59.943Z,100474.16
2024-02-04T23:28:03.848Z,100482.22
2024-02-04T23:33:12.726Z,100486.47
2024-02-04T23:38:16.369Z,100466.72
2024-02-04T23:43:20.111Z,100493.91
2024-02-04T23:48:25.089Z,100482.28
2024-02-04T23:53:29.496Z,100496.44
2024-02-04T23:58:32.997Z,100489.22
